createdAt,value
2017-06-15T00:00:36.120Z,58.48
2017-06-15T00:01:16.748Z,58.58
2017-06-15T00:01:57.338Z,58.45
2017-06-15T00:02:37.998Z,58.67
2017-06-15T00:03:18.591Z,58.26
2017-06-15T00:03:59.194Z,58.64
2017-06-15T00:04:39.802Z,58.45
2017-06-15T00:05:20.417Z,58.74
2017-06-15T00:06:01.201Z,58.55
2017-06-15T00:06:41.795Z,59.32
2017-06-15T00:07:22.388Z,59.03
2017-06-15T00:08:03.021Z,58.84
2017-06-15T00:08:43.610Z,59.03
2017-06-15T00:09:24.220Z,59.03
2017-06-15T00:10:04.819Z,58.94
2017-06-15T00:10:45.399Z,58.74
2017-06-15T00:11:25.996Z,59.03
2017-06-15T00:12:06.581Z,59.22
2017-06-15T00:12:47.189Z,58.94
2017-06-15T00:13:27.828Z,59.22
2017-06-15T00:14:08.374Z,59.32
2017-06-15T00:14:48.986Z,58.94
2017-06-15T00:15:29.573Z,58.84
2017-06-15T00:16:10.143Z,59.32
2017-06-15T00:16:50.737Z,59.8
2017-06-15T00:17:31.351Z,59.41
2017-06-15T00:18:11.950Z,59.22
2017-06-15T00:18:52.542Z,59.7
2017-06-15T00:19:33.183Z,59.7
2017-06-15T00:20:13.802Z,59.61
2017-06-15T00:20:54.399Z,59.61
2017-06-15T00:21:34.971Z,59.41
2017-06-15T00:22:18.490Z,59.7
2017-06-15T00:22:59.093Z,59.8
2017-06-15T00:23:39.716Z,59.8
2017-06-15T00:24:20.302Z,59.61
2017-06-15T00:25:00.904Z,59.61
2017-06-15T00:25:41.526Z,59.41
2017-06-15T00:26:22.134Z,59.7
2017-06-15T00:27:02.714Z,60.18
2017-06-15T00:27:43.336Z,59.89
2017-06-15T00:28:23.941Z,59.61
2017-06-15T00:29:04.529Z,59.8
2017-06-15T00:29:45.136Z,59.7
2017-06-15T00:30:25.728Z,59.7
2017-06-15T00:31:06.351Z,59.7
2017-06-15T00:31:46.949Z,59.8
2017-06-15T00:32:27.542Z,59.61
2017-06-15T00:33:08.145Z,60.08
2017-06-15T00:33:48.747Z,59.8
2017-06-15T00:34:29.342Z,59.89
2017-06-15T00:35:09.996Z,60.08
2017-06-15T00:35:50.565Z,59.8
2017-06-15T00:36:31.172Z,59.7
2017-06-15T00:37:11.769Z,59.8
2017-06-15T00:37:52.363Z,59.61
2017-06-15T00:38:32.956Z,59.99
2017-06-15T00:39:13.544Z,60.18
2017-06-15T00:39:54.143Z,59.8
2017-06-15T00:40:34.741Z,59.8
2017-06-15T00:41:15.326Z,59.89
2017-06-15T00:41:55.920Z,59.7
2017-06-15T00:42:36.534Z,59.89
2017-06-15T00:43:17.145Z,59.89
2017-06-15T00:43:57.783Z,59.89
2017-06-15T00:44:38.534Z,59.99
2017-06-15T00:45:19.137Z,59.8
2017-06-15T00:45:59.738Z,59.89
2017-06-15T00:46:40.329Z,59.7
2017-06-15T00:47:20.946Z,59.89
2017-06-15T00:48:01.549Z,60.08
2017-06-15T00:48:42.144Z,60.08
2017-06-15T00:49:22.753Z,59.89
2017-06-15T00:50:03.370Z,60.38
2017-06-15T00:50:43.962Z,59.99
2017-06-15T00:51:24.564Z,59.8
2017-06-15T00:52:05.156Z,59.7
2017-06-15T00:52:45.749Z,59.7
2017-06-15T00:53:26.333Z,59.8
2017-06-15T00:54:06.918Z,59.89
2017-06-15T00:54:47.512Z,59.61
2017-06-15T00:55:28.121Z,59.99
2017-06-15T00:56:08.715Z,59.99
2017-06-15T00:56:49.322Z,59.8
2017-06-15T00:57:29.920Z,59.89
2017-06-15T00:58:10.523Z,59.7
2017-06-15T00:58:51.128Z,59.89
2017-06-15T00:59:31.727Z,59.61
2017-06-15T01:00:12.331Z,59.7
2017-06-15T01:00:52.933Z,59.8
2017-06-15T01:01:33.507Z,60.18
2017-06-15T01:02:14.090Z,59.7
2017-06-15T01:02:54.718Z,59.89
2017-06-15T01:03:35.331Z,59.99
2017-06-15T01:04:15.948Z,60.08
2017-06-15T01:04:56.565Z,59.99
2017-06-15T01:05:37.221Z,60.08
2017-06-15T01:06:17.815Z,60.08
2017-06-15T01:06:58.437Z,59.61
2017-06-15T01:07:39.025Z,59.7
2017-06-15T01:08:19.629Z,59.7
2017-06-15T01:09:00.222Z,59.8
2017-06-15T01:09:40.824Z,59.7
2017-06-15T01:10:21.417Z,59.8
2017-06-15T01:11:02.007Z,59.51
2017-06-15T01:11:42.600Z,60.28
2017-06-15T01:12:23.206Z,60.08
2017-06-15T01:13:03.792Z,60.66
2017-06-15T01:13:44.391Z,59.61
2017-06-15T01:14:24.984Z,60.18
2017-06-15T01:15:05.581Z,59.61
2017-06-15T01:15:46.170Z,59.61
2017-06-15T01:16:26.761Z,59.7
2017-06-15T01:17:07.344Z,60.38
2017-06-15T01:17:47.958Z,60.57
2017-06-15T01:18:28.536Z,60.75
2017-06-15T01:19:09.132Z,60.18
2017-06-15T01:19:49.717Z,60.66
2017-06-15T01:20:30.296Z,60.18
2017-06-15T01:21:10.882Z,60.57
2017-06-15T01:21:51.484Z,60.57
2017-06-15T01:22:32.098Z,60.28
2017-06-15T01:23:12.664Z,60.66
2017-06-15T01:23:53.250Z,60.38
2017-06-15T01:24:33.838Z,60.57
2017-06-15T01:25:14.426Z,60.53
2017-06-15T01:25:55.040Z,60.66
2017-06-15T01:26:35.646Z,60.66
2017-06-15T01:27:16.236Z,60.25
2017-06-15T01:27:56.849Z,60.53
2017-06-15T01:28:37.443Z,60.35
2017-06-15T01:29:18.013Z,60.72
2017-06-15T01:29:58.613Z,60.53
2017-06-15T01:30:39.198Z,60.63
2017-06-15T01:31:19.805Z,60.53
2017-06-15T01:32:00.405Z,61.02
2017-06-15T01:32:41.009Z,60.92
2017-06-15T01:33:21.635Z,60.63
2017-06-15T01:34:02.197Z,60.92
2017-06-15T01:34:42.790Z,61.02
2017-06-15T01:35:23.408Z,60.82
2017-06-15T01:36:04.013Z,60.63
2017-06-15T01:36:44.599Z,61.21
2017-06-15T01:37:25.189Z,61.11
2017-06-15T01:38:05.766Z,61.11
2017-06-15T01:38:46.365Z,61.21
2017-06-15T01:39:27.000Z,61.59
2017-06-15T01:40:07.613Z,61.02
2017-06-15T01:40:48.222Z,61.4
2017-06-15T01:41:28.822Z,61.59
2017-06-15T01:42:09.438Z,61.21
2017-06-15T01:42:50.026Z,61.11
2017-06-15T01:43:30.631Z,61.3
2017-06-15T01:44:11.227Z,61.4
2017-06-15T01:44:51.814Z,61.11
2017-06-15T01:45:32.424Z,61.98
2017-06-15T01:46:13.021Z,62.07
2017-06-15T01:46:53.610Z,62.07
2017-06-15T01:47:34.242Z,61.4
2017-06-15T01:48:14.851Z,61.3
2017-06-15T01:48:55.473Z,61.3
2017-06-15T01:49:36.115Z,61.49
2017-06-15T01:50:16.700Z,61.88
2017-06-15T01:50:57.329Z,61.88
2017-06-15T01:51:37.912Z,61.98
2017-06-15T01:52:18.524Z,61.98
2017-06-15T01:52:59.150Z,61.98
2017-06-15T01:53:39.762Z,61.3
2017-06-15T01:54:20.375Z,61.49
2017-06-15T01:55:00.963Z,61.11
2017-06-15T01:55:41.572Z,61.49
2017-06-15T01:56:22.155Z,61.3
2017-06-15T01:57:02.759Z,61.11
2017-06-15T01:57:43.350Z,61.88
2017-06-15T01:58:23.945Z,61.4
2017-06-15T01:59:04.518Z,61.78
2017-06-15T01:59:45.122Z,61.4
2017-06-15T02:00:25.725Z,61.98
2017-06-15T02:01:06.321Z,61.78
2017-06-15T02:01:46.902Z,61.78
2017-06-15T02:02:27.510Z,61.75
2017-06-15T02:03:08.154Z,62.13
2017-06-15T02:03:48.748Z,62.13
2017-06-15T02:04:29.359Z,62.45
2017-06-15T02:05:09.952Z,62.62
2017-06-15T02:05:50.550Z,62.36
2017-06-15T02:06:31.147Z,62.45
2017-06-15T02:07:11.723Z,62.65
2017-06-15T02:07:52.320Z,62.36
2017-06-15T02:08:32.905Z,62.33
2017-06-15T02:09:13.502Z,62.45
2017-06-15T02:09:54.111Z,62.52
2017-06-15T02:10:34.715Z,62.45
2017-06-15T02:11:15.304Z,62.36
2017-06-15T02:11:55.889Z,62.16
2017-06-15T02:12:36.478Z,62.55
2017-06-15T02:13:17.072Z,62.16
2017-06-15T02:13:57.664Z,62.33
2017-06-15T02:14:38.265Z,62.26
2017-06-15T02:15:18.847Z,62.23
2017-06-15T02:15:59.485Z,62.52
2017-06-15T02:16:40.071Z,62.9
2017-06-15T02:17:20.666Z,63.12
2017-06-15T02:18:01.302Z,62.45
2017-06-15T02:18:41.888Z,62.36
2017-06-15T02:19:22.480Z,62.07
2017-06-15T02:20:03.063Z,62.33
2017-06-15T02:20:43.647Z,62.33
2017-06-15T02:21:24.240Z,62.16
2017-06-15T02:22:04.842Z,62.55
2017-06-15T02:22:45.420Z,62.42
2017-06-15T02:23:26.014Z,62.62
2017-06-15T02:24:06.626Z,62.62
2017-06-15T02:24:47.216Z,62.65
2017-06-15T02:25:27.812Z,62.9
2017-06-15T02:26:08.403Z,62.62
2017-06-15T02:26:49.012Z,62.42
2017-06-15T02:27:29.595Z,62.9
2017-06-15T02:28:10.191Z,62.9
2017-06-15T02:28:50.770Z,63
2017-06-15T02:29:31.371Z,62.9
2017-06-15T02:30:11.969Z,63.29
2017-06-15T02:30:52.550Z,63.38
2017-06-15T02:31:33.156Z,63.57
2017-06-15T02:32:13.740Z,63.38
2017-06-15T02:32:54.349Z,63.38
2017-06-15T02:33:34.934Z,63.19
2017-06-15T02:34:15.529Z,63.19
2017-06-15T02:34:56.133Z,63.38
2017-06-15T02:35:36.717Z,63.48
2017-06-15T02:36:17.288Z,63.19
2017-06-15T02:36:57.889Z,63.29
2017-06-15T02:37:38.488Z,63.29
2017-06-15T02:38:19.076Z,63.29
2017-06-15T02:38:59.665Z,63.32
2017-06-15T02:39:40.267Z,63.22
2017-06-15T02:40:20.866Z,63.51
2017-06-15T02:41:01.450Z,63.29
2017-06-15T02:41:42.067Z,63.7
2017-06-15T02:42:22.662Z,62.9
2017-06-15T02:43:03.244Z,63
2017-06-15T02:43:43.846Z,63
2017-06-15T02:44:24.454Z,62.71
2017-06-15T02:45:05.040Z,63.03
2017-06-15T02:45:45.634Z,62.71
2017-06-15T02:46:26.220Z,62.62
2017-06-15T02:47:06.817Z,63.19
2017-06-15T02:47:47.410Z,62.71
2017-06-15T02:48:27.994Z,62.81
2017-06-15T02:49:08.660Z,62.71
2017-06-15T02:49:49.251Z,62.62
2017-06-15T02:50:29.835Z,63.19
2017-06-15T02:51:10.440Z,63.09
2017-06-15T02:51:51.026Z,63
2017-06-15T02:52:31.639Z,63
2017-06-15T02:53:12.269Z,63.57
2017-06-15T02:53:52.867Z,63.29
2017-06-15T02:54:33.458Z,63.48
2017-06-15T02:55:14.075Z,63.19
2017-06-15T02:55:54.664Z,63.57
2017-06-15T02:56:35.268Z,63.57
2017-06-15T02:57:15.878Z,63.48
2017-06-15T02:57:56.464Z,62.81
2017-06-15T02:58:37.082Z,63.57
2017-06-15T02:59:17.695Z,63.76
2017-06-15T02:59:58.319Z,63.48
2017-06-15T03:00:38.914Z,63.29
2017-06-15T03:01:19.538Z,63
2017-06-15T03:02:00.127Z,63.29
2017-06-15T03:02:40.836Z,63.19
2017-06-15T03:03:21.429Z,62.81
2017-06-15T03:04:02.017Z,63.19
2017-06-15T03:04:42.612Z,63.76
2017-06-15T03:05:23.201Z,63.57
2017-06-15T03:06:03.803Z,63.29
2017-06-15T03:06:44.413Z,63.57
2017-06-15T03:07:25.005Z,63.29
2017-06-15T03:08:05.606Z,63.38
2017-06-15T03:08:46.229Z,63.96
2017-06-15T03:09:26.815Z,63.86
2017-06-15T03:10:07.491Z,63.38
2017-06-15T03:10:48.057Z,63.29
2017-06-15T03:11:28.668Z,63.76
2017-06-15T03:12:09.286Z,63.48
2017-06-15T03:12:49.878Z,63.48
2017-06-15T03:13:30.489Z,63.19
2017-06-15T03:14:11.090Z,63.76
2017-06-15T03:14:51.681Z,63.76
2017-06-15T03:15:32.258Z,63.76
2017-06-15T03:16:12.844Z,63.96
2017-06-15T03:16:53.431Z,64.25
2017-06-15T03:17:34.038Z,64.05
2017-06-15T03:18:14.721Z,64.25
2017-06-15T03:18:55.316Z,64.15
2017-06-15T03:19:36.779Z,63.86
2017-06-15T03:20:17.433Z,64.82
2017-06-15T03:20:58.016Z,64.34
2017-06-15T03:21:38.624Z,64.43
2017-06-15T03:22:19.223Z,64.34
2017-06-15T03:22:59.822Z,64.25
2017-06-15T03:23:40.434Z,64.43
2017-06-15T03:24:21.023Z,64.82
2017-06-15T03:25:01.602Z,64.43
2017-06-15T03:25:42.213Z,64.43
2017-06-15T03:26:22.803Z,64.34
2017-06-15T03:27:03.392Z,64.43
2017-06-15T03:27:44.001Z,64.53
2017-06-15T03:28:24.591Z,64.25
2017-06-15T03:29:05.256Z,64.53
2017-06-15T03:29:45.866Z,63.86
2017-06-15T03:30:26.495Z,63.96
2017-06-15T03:31:07.098Z,64.25
2017-06-15T03:31:47.694Z,64.05
2017-06-15T03:32:28.320Z,63.96
2017-06-15T03:33:08.900Z,63.96
2017-06-15T03:33:49.482Z,63.96
2017-06-15T03:34:30.093Z,64.28
2017-06-15T03:35:10.689Z,64.05
2017-06-15T03:35:51.276Z,64.05
2017-06-15T03:36:31.922Z,63.86
2017-06-15T03:37:12.534Z,63.76
2017-06-15T03:37:53.127Z,63.86
2017-06-15T03:38:33.743Z,63.67
2017-06-15T03:39:14.330Z,63.99
2017-06-15T03:39:54.912Z,64.05
2017-06-15T03:40:35.599Z,64.25
2017-06-15T03:41:16.219Z,64.25
2017-06-15T03:41:56.902Z,64.25
2017-06-15T03:42:37.498Z,64.34
2017-06-15T03:43:18.112Z,64.34
2017-06-15T03:43:58.725Z,64.34
2017-06-15T03:44:39.320Z,64.63
2017-06-15T03:45:19.904Z,64.43
2017-06-15T03:46:00.494Z,64.43
2017-06-15T03:46:41.092Z,64.53
2017-06-15T03:47:21.674Z,64.34
2017-06-15T03:48:02.275Z,64.25
2017-06-15T03:48:42.887Z,64.82
2017-06-15T03:49:23.526Z,64.34
2017-06-15T03:50:04.101Z,64.37
2017-06-15T03:50:44.702Z,64.34
2017-06-15T03:51:25.309Z,64.47
2017-06-15T03:52:05.908Z,64.37
2017-06-15T03:52:46.496Z,64.43
2017-06-15T03:53:27.095Z,64.47
2017-06-15T03:54:07.686Z,64.56
2017-06-15T03:54:48.325Z,64.47
2017-06-15T03:55:28.918Z,64.53
2017-06-15T03:56:09.510Z,64.34
2017-06-15T03:56:50.134Z,64.56
2017-06-15T03:57:30.765Z,64.47
2017-06-15T03:58:11.362Z,64.56
2017-06-15T03:58:51.953Z,64.37
2017-06-15T03:59:32.562Z,64.28
2017-06-15T04:00:13.144Z,64.09
2017-06-15T04:00:53.731Z,63.79
2017-06-15T04:01:34.354Z,63.51
2017-06-15T04:02:14.936Z,63.32
2017-06-15T04:02:55.543Z,63.32
2017-06-15T04:03:36.153Z,63.51
2017-06-15T04:04:16.747Z,63.22
2017-06-15T04:04:57.352Z,63.51
2017-06-15T04:05:37.994Z,63.42
2017-06-15T04:06:18.594Z,63.51
2017-06-15T04:06:59.173Z,63.51
2017-06-15T04:07:39.794Z,62.93
2017-06-15T04:08:20.411Z,62.87
2017-06-15T04:09:01.021Z,62.58
2017-06-15T04:09:41.626Z,62.48
2017-06-15T04:10:22.240Z,62.87
2017-06-15T04:11:02.843Z,62.48
2017-06-15T04:11:43.443Z,62.39
2017-06-15T04:12:24.101Z,62.48
2017-06-15T04:13:04.711Z,62.1
2017-06-15T04:13:45.306Z,62.19
2017-06-15T04:14:25.882Z,61.91
2017-06-15T04:15:06.502Z,61.91
2017-06-15T04:15:47.088Z,61.91
2017-06-15T04:16:27.688Z,61.91
2017-06-15T04:17:08.285Z,61.91
2017-06-15T04:17:48.893Z,61.33
2017-06-15T04:18:29.507Z,61.81
2017-06-15T04:19:10.107Z,61.52
2017-06-15T04:19:50.692Z,61.24
2017-06-15T04:20:31.342Z,61.24
2017-06-15T04:21:11.935Z,61.14
2017-06-15T04:21:52.551Z,61.33
2017-06-15T04:22:33.151Z,61.24
2017-06-15T04:23:13.744Z,61.33
2017-06-15T04:23:54.347Z,61.24
2017-06-15T04:24:34.956Z,61.43
2017-06-15T04:25:15.555Z,61.72
2017-06-15T04:25:56.210Z,61.33
2017-06-15T04:26:36.811Z,61.33
2017-06-15T04:27:17.427Z,61.33
2017-06-15T04:27:58.017Z,61.24
2017-06-15T04:28:38.608Z,61.05
2017-06-15T04:29:19.228Z,60.85
2017-06-15T04:29:59.841Z,60.75
2017-06-15T04:30:40.428Z,60.85
2017-06-15T04:31:21.018Z,60.66
2017-06-15T04:32:01.614Z,60.75
2017-06-15T04:32:42.194Z,60.47
2017-06-15T04:33:22.822Z,60.95
2017-06-15T04:34:03.437Z,60.28
2017-06-15T04:34:44.041Z,60.38
2017-06-15T04:35:24.645Z,60.78
2017-06-15T04:36:05.243Z,60.47
2017-06-15T04:36:45.843Z,60.66
2017-06-15T04:37:26.443Z,60.4
2017-06-15T04:38:07.041Z,61.08
2017-06-15T04:38:47.646Z,60.75
2017-06-15T04:39:28.242Z,61.05
2017-06-15T04:40:08.836Z,60.47
2017-06-15T04:40:49.424Z,60.4
2017-06-15T04:41:30.012Z,60.78
2017-06-15T04:42:10.600Z,60.69
2017-06-15T04:42:51.233Z,60.4
2017-06-15T04:43:31.817Z,60.5
2017-06-15T04:44:12.464Z,60.11
2017-06-15T04:44:53.094Z,60.5
2017-06-15T04:45:33.715Z,60.21
2017-06-15T04:46:14.281Z,59.54
2017-06-15T04:46:54.882Z,59.92
2017-06-15T04:47:35.474Z,59.92
2017-06-15T04:48:16.115Z,59.64
2017-06-15T04:48:56.673Z,59.83
2017-06-15T04:49:37.273Z,60.21
2017-06-15T04:50:17.861Z,59.92
2017-06-15T04:50:58.449Z,59.92
2017-06-15T04:51:39.043Z,59.34
2017-06-15T04:52:19.638Z,59.25
2017-06-15T04:53:00.232Z,59.73
2017-06-15T04:53:40.842Z,60.02
2017-06-15T04:54:21.425Z,59.83
2017-06-15T04:55:02.018Z,60.6
2017-06-15T04:55:42.617Z,60.4
2017-06-15T04:56:23.197Z,59.73
2017-06-15T04:57:03.789Z,59.73
2017-06-15T04:57:44.407Z,59.54
2017-06-15T04:58:24.996Z,59.83
2017-06-15T04:59:05.720Z,59.25
2017-06-15T04:59:46.356Z,58.77
2017-06-15T05:00:27.289Z,58.96
2017-06-15T05:01:09.146Z,59.06
2017-06-15T05:01:52.346Z,58.96
2017-06-15T05:02:35.000Z,59.25
2017-06-15T05:03:15.685Z,59.64
2017-06-15T05:03:56.291Z,59.06
2017-06-15T05:04:42.178Z,59.06
2017-06-15T05:05:24.009Z,58.96
2017-06-15T05:06:05.260Z,58.48
2017-06-15T05:06:45.854Z,58.67
2017-06-15T05:07:27.334Z,58.2
2017-06-15T05:08:08.031Z,59.16
2017-06-15T05:08:48.766Z,59.06
2017-06-15T05:09:29.691Z,59.34
2017-06-15T05:10:10.272Z,59.44
2017-06-15T05:10:50.957Z,59.34
2017-06-15T05:11:33.032Z,58.29
2017-06-15T05:12:15.406Z,58.67
2017-06-15T05:12:56.461Z,58.58
2017-06-15T05:13:37.127Z,58.58
2017-06-15T05:14:17.891Z,58.58
2017-06-15T05:14:58.479Z,58.29
2017-06-15T05:15:39.086Z,58.67
2017-06-15T05:16:19.973Z,58.87
2017-06-15T05:17:00.590Z,59.25
2017-06-15T05:17:41.183Z,59.16
2017-06-15T05:18:21.797Z,59.19
2017-06-15T05:19:02.390Z,58.7
2017-06-15T05:19:43.011Z,58.8
2017-06-15T05:20:23.799Z,58.8
2017-06-15T05:21:04.767Z,58.61
2017-06-15T05:21:45.707Z,58.61
2017-06-15T05:22:26.449Z,58.32
2017-06-15T05:23:07.233Z,58.06
2017-06-15T05:23:47.826Z,57.77
2017-06-15T05:24:28.415Z,57.68
2017-06-15T05:25:09.116Z,56.71
2017-06-15T05:25:49.826Z,56.33
2017-06-15T05:26:30.516Z,55.94
2017-06-15T05:27:11.114Z,55.94
2017-06-15T05:27:51.897Z,55.85
2017-06-15T05:28:32.514Z,55.46
2017-06-15T05:29:13.128Z,55.49
2017-06-15T05:29:53.715Z,55.68
2017-06-15T05:30:34.306Z,55.49
2017-06-15T05:31:14.892Z,55.49
2017-06-15T05:31:55.479Z,55.11
2017-06-15T05:32:36.057Z,54.56
2017-06-15T05:33:16.661Z,53.59
2017-06-15T05:33:57.262Z,54.36
2017-06-15T05:34:37.867Z,54.46
2017-06-15T05:35:18.462Z,54.17
2017-06-15T05:35:59.044Z,53.88
2017-06-15T05:36:39.644Z,53.33
2017-06-15T05:37:20.241Z,53.81
2017-06-15T05:38:00.859Z,53.33
2017-06-15T05:38:41.454Z,53.33
2017-06-15T05:39:22.057Z,52.56
2017-06-15T05:40:02.658Z,52.49
2017-06-15T05:40:43.263Z,52.3
2017-06-15T05:41:23.863Z,52.2
2017-06-15T05:42:04.454Z,51.72
2017-06-15T05:42:45.054Z,51.43
2017-06-15T05:43:25.677Z,51.14
2017-06-15T05:44:06.266Z,50.66
2017-06-15T05:44:46.884Z,50.11
2017-06-15T05:45:27.464Z,50.49
2017-06-15T05:46:08.055Z,50.49
2017-06-15T05:46:48.667Z,50.49
2017-06-15T05:47:29.259Z,49.82
2017-06-15T05:48:09.872Z,50.11
2017-06-15T05:48:50.481Z,49.91
2017-06-15T05:49:31.091Z,50.13
2017-06-15T05:50:11.686Z,49.17
2017-06-15T05:50:52.285Z,49.07
2017-06-15T05:51:33.183Z,48.69
2017-06-15T05:52:13.822Z,48.59
2017-06-15T05:52:54.541Z,48.4
2017-06-15T05:53:35.145Z,48.4
2017-06-15T05:54:15.742Z,48.23
2017-06-15T05:54:56.340Z,47.75
2017-06-15T05:55:36.926Z,47.85
2017-06-15T05:56:17.554Z,47.85
2017-06-15T05:56:58.134Z,45.53
2017-06-15T05:57:38.724Z,46.59
2017-06-15T05:58:19.334Z,46.69
2017-06-15T05:58:59.934Z,47.07
2017-06-15T05:59:40.535Z,47.17
2017-06-15T06:00:21.126Z,47.85
2017-06-15T06:02:44.717Z,46.71
2017-06-15T06:03:25.331Z,46.51
2017-06-15T06:04:05.918Z,46.23
2017-06-15T06:04:46.510Z,46.13
2017-06-15T06:05:27.104Z,46.42
2017-06-15T06:06:07.707Z,46.71
2017-06-15T06:06:48.299Z,45.75
2017-06-15T06:07:28.926Z,45.26
2017-06-15T06:08:09.510Z,44.87
2017-06-15T06:08:50.197Z,45.17
2017-06-15T06:09:30.787Z,45.28
2017-06-15T06:10:11.380Z,45.18
2017-06-15T06:10:54.068Z,45.18
2017-06-15T06:11:34.659Z,45.09
2017-06-15T06:12:15.258Z,44.22
2017-06-15T06:12:57.575Z,44.03
2017-06-15T06:13:38.255Z,44.12
2017-06-15T06:14:18.849Z,44.03
2017-06-15T06:14:59.448Z,44.34
2017-06-15T06:15:40.399Z,44.15
2017-06-15T06:16:21.019Z,43.37
2017-06-15T06:17:02.149Z,43.47
2017-06-15T06:17:42.894Z,42.6
2017-06-15T06:18:23.503Z,42.41
2017-06-15T06:19:04.101Z,42.6
2017-06-15T06:19:44.928Z,42.6
2017-06-15T06:20:25.528Z,42.7
2017-06-15T06:21:06.131Z,42.41
2017-06-15T06:21:58.872Z,42.41
2017-06-15T06:22:39.478Z,42.6
2017-06-15T06:23:20.991Z,42.6
2017-06-15T06:24:09.918Z,41.93
2017-06-15T06:24:50.529Z,42.41
2017-06-15T06:25:31.143Z,42.7
2017-06-15T06:26:11.771Z,42.43
2017-06-15T06:26:52.454Z,42.04
2017-06-15T06:27:35.195Z,42.04
2017-06-15T06:28:23.188Z,42.24
2017-06-15T06:29:11.991Z,42.14
2017-06-15T06:29:52.635Z,42.14
2017-06-15T06:30:38.407Z,41.19
2017-06-15T06:31:19.087Z,41.67
2017-06-15T06:31:59.673Z,41.77
2017-06-15T06:32:40.276Z,40.52
2017-06-15T06:33:21.675Z,41
2017-06-15T06:34:15.958Z,40.23
2017-06-15T06:34:57.449Z,39.55
2017-06-15T06:35:38.037Z,40.23
2017-06-15T06:36:18.732Z,40.03
2017-06-15T06:36:59.404Z,40.9
2017-06-15T06:37:40.003Z,40.71
2017-06-15T06:38:20.608Z,40.32
2017-06-15T06:39:01.233Z,39.84
2017-06-15T06:39:41.849Z,39.74
2017-06-15T06:40:22.465Z,39.84
2017-06-15T06:41:03.099Z,39.57
2017-06-15T06:41:43.707Z,39.47
2017-06-15T06:42:24.299Z,39.67
2017-06-15T06:43:04.914Z,38.5
2017-06-15T06:43:45.514Z,38.79
2017-06-15T06:44:26.133Z,38.79
2017-06-15T06:45:06.791Z,38.79
2017-06-15T06:45:49.117Z,38.41
2017-06-15T06:46:43.144Z,38.89
2017-06-15T06:47:36.432Z,38.12
2017-06-15T06:48:23.689Z,38.5
2017-06-15T06:49:05.004Z,38.89
2017-06-15T06:49:48.542Z,38.12
2017-06-15T06:50:30.450Z,38.04
2017-06-15T06:51:20.078Z,38.02
2017-06-15T06:52:09.575Z,38.5
2017-06-15T06:52:58.418Z,38.43
2017-06-15T06:54:08.966Z,38.7
2017-06-15T06:55:05.760Z,38.71
2017-06-15T06:55:58.233Z,38.91
2017-06-15T06:56:43.806Z,38.62
2017-06-15T06:57:30.368Z,38.04
2017-06-15T06:58:23.833Z,38.04
2017-06-15T06:59:09.067Z,38.71
2017-06-15T06:59:55.857Z,37.85
2017-06-15T07:00:43.576Z,37.75
2017-06-15T07:01:27.067Z,37.94
2017-06-15T07:02:08.373Z,37.65
2017-06-15T07:02:48.995Z,37.75
2017-06-15T07:03:34.070Z,37.36
2017-06-15T07:04:21.889Z,37.46
2017-06-15T07:05:02.658Z,37.26
2017-06-15T07:05:43.269Z,37.73
2017-06-15T07:06:23.862Z,37.65
2017-06-15T07:07:04.576Z,37.54
2017-06-15T07:07:45.217Z,37.92
2017-06-15T07:08:25.807Z,39.01
2017-06-15T07:09:06.417Z,38.89
2017-06-15T07:09:47.024Z,38.5
2017-06-15T07:10:27.640Z,38.71
2017-06-15T07:11:08.249Z,40.46
2017-06-15T07:11:48.865Z,39.59
2017-06-15T07:12:29.464Z,38.23
2017-06-15T07:13:10.066Z,38.04
2017-06-15T07:13:50.661Z,38.13
2017-06-15T07:14:31.279Z,37.65
2017-06-15T07:15:11.861Z,37.46
2017-06-15T07:15:52.493Z,37.46
2017-06-15T07:16:33.123Z,37.75
2017-06-15T07:17:13.717Z,37.55
2017-06-15T07:17:54.311Z,37.75
2017-06-15T07:18:34.920Z,37.36
2017-06-15T07:19:15.512Z,37.28
2017-06-15T07:19:56.141Z,37.38
2017-06-15T07:20:36.737Z,37.28
2017-06-15T07:21:17.344Z,37.57
2017-06-15T07:21:57.938Z,37.67
2017-06-15T07:22:38.532Z,39.22
2017-06-15T07:23:19.156Z,39.51
2017-06-15T07:23:59.739Z,37.87
2017-06-15T07:24:40.342Z,36.8
2017-06-15T07:25:20.956Z,36.99
2017-06-15T07:26:01.569Z,37.59
2017-06-15T07:26:42.164Z,36.72
2017-06-15T07:27:22.806Z,36.41
2017-06-15T07:28:03.402Z,37.57
2017-06-15T07:28:44.007Z,36.9
2017-06-15T07:29:24.662Z,36.14
2017-06-15T07:30:05.248Z,36.43
2017-06-15T07:30:45.847Z,35.73
2017-06-15T07:31:26.451Z,36.43
2017-06-15T07:32:07.064Z,35.73
2017-06-15T07:32:47.669Z,36.32
2017-06-15T07:33:28.280Z,36.51
2017-06-15T07:34:08.885Z,36.6
2017-06-15T07:34:49.498Z,37.38
2017-06-15T07:35:30.133Z,37.57
2017-06-15T07:36:10.749Z,36.51
2017-06-15T07:36:51.328Z,36.22
2017-06-15T07:37:31.921Z,36.51
2017-06-15T07:38:12.529Z,37.48
2017-06-15T07:38:53.139Z,37.77
2017-06-15T07:39:33.734Z,38.66
2017-06-15T07:40:14.361Z,36.52
2017-06-15T07:40:54.982Z,36.24
2017-06-15T07:41:35.643Z,36.43
2017-06-15T07:42:16.272Z,35.66
2017-06-15T07:42:57.426Z,36.24
2017-06-15T07:43:38.594Z,37.3
2017-06-15T07:44:19.188Z,36.14
2017-06-15T07:44:59.787Z,35.66
2017-06-15T07:45:41.364Z,35.36
2017-06-15T07:46:22.304Z,35.36
2017-06-15T07:47:02.910Z,35.27
2017-06-15T07:47:43.536Z,35.27
2017-06-15T07:48:24.139Z,36.52
2017-06-15T07:49:04.984Z,37.3
2017-06-15T07:49:45.608Z,35.75
2017-06-15T07:50:26.247Z,36.72
2017-06-15T07:51:06.837Z,36.24
2017-06-15T07:51:47.433Z,36.33
2017-06-15T07:52:28.711Z,36.72
2017-06-15T07:53:09.308Z,34.78
2017-06-15T07:53:49.929Z,34.97
2017-06-15T07:54:30.535Z,36.62
2017-06-15T07:55:11.145Z,36.33
2017-06-15T07:55:51.749Z,36.43
2017-06-15T07:56:32.522Z,34.97
2017-06-15T07:57:13.134Z,36.04
2017-06-15T07:57:53.725Z,35.66
2017-06-15T07:58:35.145Z,36.52
2017-06-15T07:59:15.572Z,37.4
2017-06-15T07:59:56.172Z,37.01
2017-06-15T08:00:36.811Z,36.43
2017-06-15T08:01:17.585Z,37.4
2017-06-15T08:01:58.184Z,36.14
2017-06-15T08:02:38.800Z,36.62
2017-06-15T08:03:19.399Z,36.14
2017-06-15T08:04:00.007Z,37.59
2017-06-15T08:04:40.639Z,37.59
2017-06-15T08:05:21.242Z,37.4
2017-06-15T08:06:01.870Z,37.4
2017-06-15T08:06:42.462Z,35.75
2017-06-15T08:07:23.091Z,36.04
2017-06-15T08:08:03.682Z,37.49
2017-06-15T08:08:44.269Z,37.69
2017-06-15T08:09:24.883Z,36.33
2017-06-15T08:10:05.738Z,36.33
2017-06-15T08:10:46.367Z,35.27
2017-06-15T08:11:26.985Z,35.94
2017-06-15T08:12:07.600Z,37.4
2017-06-15T08:12:48.206Z,38.85
2017-06-15T08:13:28.808Z,37.69
2017-06-15T08:14:09.428Z,36.82
2017-06-15T08:14:50.033Z,37.79
2017-06-15T08:15:30.655Z,38.95
2017-06-15T08:16:11.267Z,38.68
2017-06-15T08:16:51.857Z,37.81
2017-06-15T08:17:32.449Z,38.68
2017-06-15T08:18:13.071Z,36.93
2017-06-15T08:18:53.653Z,36.54
2017-06-15T08:19:34.242Z,35.96
2017-06-15T08:20:14.830Z,37.41
2017-06-15T08:20:55.423Z,38.78
2017-06-15T08:21:36.076Z,36.35
2017-06-15T08:22:16.689Z,37.49
2017-06-15T08:22:57.307Z,35.27
2017-06-15T08:23:37.930Z,33.72
2017-06-15T08:24:18.559Z,33.42
2017-06-15T08:24:59.151Z,35.07
2017-06-15T08:25:39.711Z,36.52
2017-06-15T08:26:20.302Z,36.62
2017-06-15T08:27:00.980Z,36.51
2017-06-15T08:27:41.539Z,37.01
2017-06-15T08:28:22.148Z,38.95
2017-06-15T08:29:03.032Z,37.88
2017-06-15T08:29:43.657Z,37.69
2017-06-15T08:30:24.232Z,38.85
2017-06-15T08:31:04.815Z,39.04
2017-06-15T08:31:45.441Z,38.66
2017-06-15T08:32:26.040Z,37.4
2017-06-15T08:33:06.660Z,35.36
2017-06-15T08:33:47.248Z,35.66
2017-06-15T08:34:27.882Z,34.97
2017-06-15T08:35:08.517Z,34.69
2017-06-15T08:35:49.099Z,35.56
2017-06-15T08:36:29.821Z,35.46
2017-06-15T08:37:10.496Z,35.05
2017-06-15T08:37:51.845Z,36.32
2017-06-15T08:38:33.526Z,37.4
2017-06-15T08:39:15.268Z,37.79
2017-06-15T08:39:57.368Z,36.02
2017-06-15T08:40:40.829Z,35.44
2017-06-15T08:41:22.302Z,35.25
2017-06-15T08:42:05.191Z,35.44
2017-06-15T08:42:48.350Z,35.85
2017-06-15T08:43:30.168Z,37.19
2017-06-15T08:44:14.966Z,38.95
2017-06-15T08:44:59.223Z,39.72
2017-06-15T08:45:41.003Z,39.43
2017-06-15T08:46:24.642Z,38.27
2017-06-15T08:47:06.503Z,35.75
2017-06-15T08:47:47.871Z,34.59
2017-06-15T08:48:29.924Z,34.88
2017-06-15T08:49:10.501Z,34.97
2017-06-15T08:49:51.161Z,36.24
2017-06-15T08:50:31.792Z,38.17
2017-06-15T08:51:12.658Z,38.56
2017-06-15T08:51:55.129Z,36.82
2017-06-15T08:52:38.621Z,38.07